sensor_id;sensor_type;location;lat;lon;timestamp;temperature;humidity
41838;DHT22;27511;52.042;5.178;2022-09-06T00:01:40;23.80;99.90
41838;DHT22;27511;52.042;5.178;2022-09-06T00:04:07;23.80;99.90
41838;DHT22;27511;52.042;5.178;2022-09-06T00:06:32;23.80;99.90
41838;DHT22;27511;52.042;5.178;2022-09-06T00:08:58;23.80;99.90
41838;DHT22;27511;52.042;5.178;2022-09-06T00:11:24;23.80;99.90
41838;DHT22;27511;52.042;5.178;2022-09-06T00:13:50;23.80;99.90
41838;DHT22;27511;52.042;5.178;2022-09-06T00:16:20;23.80;99.90
41838;DHT22;27511;52.042;5.178;2022-09-06T00:18:47;23.80;99.90
41838;DHT22;27511;52.042;5.178;2022-09-06T00:21:19;23.80;99.90
41838;DHT22;27511;52.042;5.178;2022-09-06T00:23:45;23.80;99.90
41838;DHT22;27511;52.042;5.178;2022-09-06T00:26:11;23.80;99.90
41838;DHT22;27511;52.042;5.178;2022-09-06T00:28:37;23.70;99.90
41838;DHT22;27511;52.042;5.178;2022-09-06T00:31:17;23.70;99.90
41838;DHT22;27511;52.042;5.178;2022-09-06T00:33:43;23.70;99.90
41838;DHT22;27511;52.042;5.178;2022-09-06T00:36:10;23.70;99.90
41838;DHT22;27511;52.042;5.178;2022-09-06T00:38:36;23.70;99.90
41838;DHT22;27511;52.042;5.178;2022-09-06T00:41:03;23.60;99.90
41838;DHT22;27511;52.042;5.178;2022-09-06T00:43:28;23.50;99.90
41838;DHT22;27511;52.042;5.178;2022-09-06T00:45:54;23.50;99.90
41838;DHT22;27511;52.042;5.178;2022-09-06T00:48:21;23.50;99.90
41838;DHT22;27511;52.042;5.178;2022-09-06T00:50:49;23.50;99.90
41838;DHT22;27511;52.042;5.178;2022-09-06T00:53:16;23.60;99.90
41838;DHT22;27511;52.042;5.178;2022-09-06T00:55:43;23.60;99.90
41838;DHT22;27511;52.042;5.178;2022-09-06T00:58:09;23.50;99.90
41838;DHT22;27511;52.042;5.178;2022-09-06T01:00:35;23.50;99.90
41838;DHT22;27511;52.042;5.178;2022-09-06T01:03:01;23.50;99.90
41838;DHT22;27511;52.042;5.178;2022-09-06T01:05:54;23.50;99.90
41838;DHT22;27511;52.042;5.178;2022-09-06T01:23:16;23.40;99.90
41838;DHT22;27511;52.042;5.178;2022-09-06T01:28:49;23.40;99.90
41838;DHT22;27511;52.042;5.178;2022-09-06T01:31:22;23.30;99.90
41838;DHT22;27511;52.042;5.178;2022-09-06T01:39:37;23.30;99.90
41838;DHT22;27511;52.042;5.178;2022-09-06T01:42:17;23.30;99.90
41838;DHT22;27511;52.042;5.178;2022-09-06T01:44:54;23.20;99.90
41838;DHT22;27511;52.042;5.178;2022-09-06T01:53:10;23.20;99.90
41838;DHT22;27511;52.042;5.178;2022-09-06T02:01:09;23.20;99.90
41838;DHT22;27511;52.042;5.178;2022-09-06T02:06:09;23.40;99.90
41838;DHT22;27511;52.042;5.178;2022-09-06T02:08:47;23.20;99.90
41838;DHT22;27511;52.042;5.178;2022-09-06T02:11:14;23.10;99.90
41838;DHT22;27511;52.042;5.178;2022-09-06T02:13:48;23.20;99.90
41838;DHT22;27511;52.042;5.178;2022-09-06T02:16:18;23.10;99.90
41838;DHT22;27511;52.042;5.178;2022-09-06T02:19:10;23.10;99.90
41838;DHT22;27511;52.042;5.178;2022-09-06T02:21:40;23.00;99.90
41838;DHT22;27511;52.042;5.178;2022-09-06T02:24:11;23.00;99.90
41838;DHT22;27511;52.042;5.178;2022-09-06T02:26:39;22.90;99.90
41838;DHT22;27511;52.042;5.178;2022-09-06T02:29:08;22.80;99.90
41838;DHT22;27511;52.042;5.178;2022-09-06T02:31:41;22.90;99.90
41838;DHT22;27511;52.042;5.178;2022-09-06T02:34:13;22.90;99.90
41838;DHT22;27511;52.042;5.178;2022-09-06T02:36:40;22.80;99.90
41838;DHT22;27511;52.042;5.178;2022-09-06T02:39:05;22.80;99.90
41838;DHT22;27511;52.042;5.178;2022-09-06T02:41:32;22.80;99.90
41838;DHT22;27511;52.042;5.178;2022-09-06T02:43:58;22.90;99.90
41838;DHT22;27511;52.042;5.178;2022-09-06T02:46:23;22.80;99.90
41838;DHT22;27511;52.042;5.178;2022-09-06T02:48:50;22.80;99.90
41838;DHT22;27511;52.042;5.178;2022-09-06T02:51:16;22.80;99.90
41838;DHT22;27511;52.042;5.178;2022-09-06T02:53:42;22.80;99.90
41838;DHT22;27511;52.042;5.178;2022-09-06T02:56:08;22.80;99.90
41838;DHT22;27511;52.042;5.178;2022-09-06T02:58:34;22.80;99.90
41838;DHT22;27511;52.042;5.178;2022-09-06T03:00:59;22.70;99.90
41838;DHT22;27511;52.042;5.178;2022-09-06T03:03:25;22.80;99.90
41838;DHT22;27511;52.042;5.178;2022-09-06T03:05:53;22.60;99.90
41838;DHT22;27511;52.042;5.178;2022-09-06T03:08:20;22.50;99.90
41838;DHT22;27511;52.042;5.178;2022-09-06T03:10:51;22.60;99.90
41838;DHT22;27511;52.042;5.178;2022-09-06T03:13:17;22.60;99.90
41838;DHT22;27511;52.042;5.178;2022-09-06T03:15:43;22.60;99.90
41838;DHT22;27511;52.042;5.178;2022-09-06T03:18:09;22.60;99.90
41838;DHT22;27511;52.042;5.178;2022-09-06T03:20:34;22.40;99.90
41838;DHT22;27511;52.042;5.178;2022-09-06T03:23:00;22.50;99.90
41838;DHT22;27511;52.042;5.178;2022-09-06T03:25:26;22.50;99.90
41838;DHT22;27511;52.042;5.178;2022-09-06T03:27:51;22.40;99.90
41838;DHT22;27511;52.042;5.178;2022-09-06T03:30:17;22.50;99.90
41838;DHT22;27511;52.042;5.178;2022-09-06T03:32:43;22.50;99.90
41838;DHT22;27511;52.042;5.178;2022-09-06T03:35:09;22.40;99.90
41838;DHT22;27511;52.042;5.178;2022-09-06T03:37:35;22.50;99.90
41838;DHT22;27511;52.042;5.178;2022-09-06T03:40:04;22.40;99.90
41838;DHT22;27511;52.042;5.178;2022-09-06T03:42:30;22.50;99.90
41838;DHT22;27511;52.042;5.178;2022-09-06T03:44:56;22.50;99.90
41838;DHT22;27511;52.042;5.178;2022-09-06T03:47:22;22.50;99.90
41838;DHT22;27511;52.042;5.178;2022-09-06T03:49:47;22.60;99.90
41838;DHT22;27511;52.042;5.178;2022-09-06T03:52:13;22.50;99.90
41838;DHT22;27511;52.042;5.178;2022-09-06T03:54:39;22.40;99.90
41838;DHT22;27511;52.042;5.178;2022-09-06T03:57:05;22.40;99.90
41838;DHT22;27511;52.042;5.178;2022-09-06T03:59:31;22.30;99.90
41838;DHT22;27511;52.042;5.178;2022-09-06T04:01:57;22.40;99.90
41838;DHT22;27511;52.042;5.178;2022-09-06T04:04:22;22.30;99.90
41838;DHT22;27511;52.042;5.178;2022-09-06T04:06:48;22.30;99.90
41838;DHT22;27511;52.042;5.178;2022-09-06T04:09:13;22.20;99.90
41838;DHT22;27511;52.042;5.178;2022-09-06T04:11:40;22.30;99.90
41838;DHT22;27511;52.042;5.178;2022-09-06T04:14:06;22.20;99.90
41838;DHT22;27511;52.042;5.178;2022-09-06T04:16:31;22.30;99.90
41838;DHT22;27511;52.042;5.178;2022-09-06T04:18:57;22.30;99.90
41838;DHT22;27511;52.042;5.178;2022-09-06T04:21:25;22.20;99.90
41838;DHT22;27511;52.042;5.178;2022-09-06T04:23:50;22.30;99.90
41838;DHT22;27511;52.042;5.178;2022-09-06T04:26:16;22.20;99.90
41838;DHT22;27511;52.042;5.178;2022-09-06T04:28:42;22.20;99.90
41838;DHT22;27511;52.042;5.178;2022-09-06T04:31:07;22.20;99.90
41838;DHT22;27511;52.042;5.178;2022-09-06T04:33:34;22.20;99.90
41838;DHT22;27511;52.042;5.178;2022-09-06T04:36:05;22.20;99.90
41838;DHT22;27511;52.042;5.178;2022-09-06T04:38:35;22.20;99.90
41838;DHT22;27511;52.042;5.178;2022-09-06T04:41:01;22.10;99.90
41838;DHT22;27511;52.042;5.178;2022-09-06T04:43:27;22.10;99.90
41838;DHT22;27511;52.042;5.178;2022-09-06T04:45:53;22.10;99.90
41838;DHT22;27511;52.042;5.178;2022-09-06T04:48:21;22.10;99.90
41838;DHT22;27511;52.042;5.178;2022-09-06T04:50:47;22.10;99.90
41838;DHT22;27511;52.042;5.178;2022-09-06T04:53:12;22.10;99.90
41838;DHT22;27511;52.042;5.178;2022-09-06T04:55:38;22.10;99.90
41838;DHT22;27511;52.042;5.178;2022-09-06T04:58:04;22.10;99.90
41838;DHT22;27511;52.042;5.178;2022-09-06T05:00:31;22.00;99.90
41838;DHT22;27511;52.042;5.178;2022-09-06T05:02:57;22.00;99.90
41838;DHT22;27511;52.042;5.178;2022-09-06T05:05:23;22.00;99.90
41838;DHT22;27511;52.042;5.178;2022-09-06T05:07:53;22.00;99.90
41838;DHT22;27511;52.042;5.178;2022-09-06T05:10:19;22.00;99.90
41838;DHT22;27511;52.042;5.178;2022-09-06T05:12:48;22.00;99.90
41838;DHT22;27511;52.042;5.178;2022-09-06T05:15:15;22.00;99.90
41838;DHT22;27511;52.042;5.178;2022-09-06T05:17:41;22.10;99.90
41838;DHT22;27511;52.042;5.178;2022-09-06T05:20:08;22.00;99.90
41838;DHT22;27511;52.042;5.178;2022-09-06T05:22:34;22.00;99.90
41838;DHT22;27511;52.042;5.178;2022-09-06T05:25:00;21.90;99.90
41838;DHT22;27511;52.042;5.178;2022-09-06T05:27:25;21.90;99.90
41838;DHT22;27511;52.042;5.178;2022-09-06T05:29:51;21.90;99.90
41838;DHT22;27511;52.042;5.178;2022-09-06T05:32:17;21.90;99.90
41838;DHT22;27511;52.042;5.178;2022-09-06T05:34:42;21.90;99.90
41838;DHT22;27511;52.042;5.178;2022-09-06T05:37:11;21.90;99.90
41838;DHT22;27511;52.042;5.178;2022-09-06T05:39:36;21.80;99.90
41838;DHT22;27511;52.042;5.178;2022-09-06T05:42:02;21.90;99.90
41838;DHT22;27511;52.042;5.178;2022-09-06T05:44:35;21.90;99.90
41838;DHT22;27511;52.042;5.178;2022-09-06T05:47:00;21.80;99.90
41838;DHT22;27511;52.042;5.178;2022-09-06T05:49:29;21.70;99.90
41838;DHT22;27511;52.042;5.178;2022-09-06T05:51:55;21.80;99.90
41838;DHT22;27511;52.042;5.178;2022-09-06T05:54:21;21.80;99.90
41838;DHT22;27511;52.042;5.178;2022-09-06T05:56:47;21.80;99.90
41838;DHT22;27511;52.042;5.178;2022-09-06T05:59:15;21.80;99.90
41838;DHT22;27511;52.042;5.178;2022-09-06T06:01:49;21.90;99.90
41838;DHT22;27511;52.042;5.178;2022-09-06T06:04:15;21.80;99.90
41838;DHT22;27511;52.042;5.178;2022-09-06T06:06:46;21.80;99.90
41838;DHT22;27511;52.042;5.178;2022-09-06T06:09:13;21.80;99.90
41838;DHT22;27511;52.042;5.178;2022-09-06T06:11:39;21.80;99.90
41838;DHT22;27511;52.042;5.178;2022-09-06T06:14:05;21.80;99.90
41838;DHT22;27511;52.042;5.178;2022-09-06T06:16:31;21.80;99.90
41838;DHT22;27511;52.042;5.178;2022-09-06T06:18:56;21.80;99.90
41838;DHT22;27511;52.042;5.178;2022-09-06T06:21:24;21.90;99.90
41838;DHT22;27511;52.042;5.178;2022-09-06T06:24:01;21.90;99.90
41838;DHT22;27511;52.042;5.178;2022-09-06T06:26:30;21.90;99.90
41838;DHT22;27511;52.042;5.178;2022-09-06T06:28:56;21.90;99.90
41838;DHT22;27511;52.042;5.178;2022-09-06T06:31:26;21.90;99.90
41838;DHT22;27511;52.042;5.178;2022-09-06T06:33:51;21.90;99.90
41838;DHT22;27511;52.042;5.178;2022-09-06T06:36:21;22.00;99.90
41838;DHT22;27511;52.042;5.178;2022-09-06T06:38:48;22.00;99.90
41838;DHT22;27511;52.042;5.178;2022-09-06T06:41:16;22.10;99.90
41838;DHT22;27511;52.042;5.178;2022-09-06T06:43:42;22.10;99.90
41838;DHT22;27511;52.042;5.178;2022-09-06T06:46:15;22.10;99.90
41838;DHT22;27511;52.042;5.178;2022-09-06T06:48:42;22.10;99.90
41838;DHT22;27511;52.042;5.178;2022-09-06T06:51:13;22.20;99.90
41838;DHT22;27511;52.042;5.178;2022-09-06T06:53:39;22.20;99.90
41838;DHT22;27511;52.042;5.178;2022-09-06T06:58:45;22.20;99.90
41838;DHT22;27511;52.042;5.178;2022-09-06T07:01:11;22.30;99.90
41838;DHT22;27511;52.042;5.178;2022-09-06T07:03:37;22.40;99.90
41838;DHT22;27511;52.042;5.178;2022-09-06T07:06:03;22.40;99.90
41838;DHT22;27511;52.042;5.178;2022-09-06T07:08:29;22.40;99.90
41838;DHT22;27511;52.042;5.178;2022-09-06T07:10:55;22.40;99.90
41838;DHT22;27511;52.042;5.178;2022-09-06T07:13:20;22.50;99.90
41838;DHT22;27511;52.042;5.178;2022-09-06T07:15:46;22.50;99.90
41838;DHT22;27511;52.042;5.178;2022-09-06T07:18:14;22.40;99.90
41838;DHT22;27511;52.042;5.178;2022-09-06T07:20:40;22.50;99.90
41838;DHT22;27511;52.042;5.178;2022-09-06T07:23:06;22.50;99.90
41838;DHT22;27511;52.042;5.178;2022-09-06T07:25:32;22.60;99.90
41838;DHT22;27511;52.042;5.178;2022-09-06T07:28:03;22.70;99.90
41838;DHT22;27511;52.042;5.178;2022-09-06T07:30:33;22.70;99.90
41838;DHT22;27511;52.042;5.178;2022-09-06T07:32:59;22.70;99.90
41838;DHT22;27511;52.042;5.178;2022-09-06T07:35:27;22.70;99.90
41838;DHT22;27511;52.042;5.178;2022-09-06T07:37:54;22.80;99.90
41838;DHT22;27511;52.042;5.178;2022-09-06T07:40:20;22.80;99.90
41838;DHT22;27511;52.042;5.178;2022-09-06T07:42:46;22.80;99.90
41838;DHT22;27511;52.042;5.178;2022-09-06T07:45:11;22.80;99.90
41838;DHT22;27511;52.042;5.178;2022-09-06T07:47:37;22.90;99.90
41838;DHT22;27511;52.042;5.178;2022-09-06T07:50:03;23.00;99.90
41838;DHT22;27511;52.042;5.178;2022-09-06T07:52:29;23.00;99.90
41838;DHT22;27511;52.042;5.178;2022-09-06T07:54:55;23.00;99.90
41838;DHT22;27511;52.042;5.178;2022-09-06T07:57:24;23.10;99.90
41838;DHT22;27511;52.042;5.178;2022-09-06T07:59:49;23.10;99.90
41838;DHT22;27511;52.042;5.178;2022-09-06T08:02:16;23.10;99.90
41838;DHT22;27511;52.042;5.178;2022-09-06T08:04:42;23.20;99.90
41838;DHT22;27511;52.042;5.178;2022-09-06T08:07:08;23.20;99.90
41838;DHT22;27511;52.042;5.178;2022-09-06T08:09:34;23.30;99.90
41838;DHT22;27511;52.042;5.178;2022-09-06T08:11:59;23.40;99.90
41838;DHT22;27511;52.042;5.178;2022-09-06T08:14:31;23.40;99.90
41838;DHT22;27511;52.042;5.178;2022-09-06T08:16:57;23.60;99.90
41838;DHT22;27511;52.042;5.178;2022-09-06T08:19:22;23.60;99.90
41838;DHT22;27511;52.042;5.178;2022-09-06T08:21:48;23.60;99.90
41838;DHT22;27511;52.042;5.178;2022-09-06T08:24:14;23.60;99.90
41838;DHT22;27511;52.042;5.178;2022-09-06T08:26:40;23.70;99.90
41838;DHT22;27511;52.042;5.178;2022-09-06T08:29:08;23.80;99.90
41838;DHT22;27511;52.042;5.178;2022-09-06T08:31:37;23.70;99.90
41838;DHT22;27511;52.042;5.178;2022-09-06T08:34:03;23.80;99.90
41838;DHT22;27511;52.042;5.178;2022-09-06T08:36:29;23.80;99.90
41838;DHT22;27511;52.042;5.178;2022-09-06T08:38:56;23.90;99.90
41838;DHT22;27511;52.042;5.178;2022-09-06T08:41:29;24.00;99.90
41838;DHT22;27511;52.042;5.178;2022-09-06T08:44:10;24.00;99.90
41838;DHT22;27511;52.042;5.178;2022-09-06T08:46:41;24.10;99.90
41838;DHT22;27511;52.042;5.178;2022-09-06T08:49:06;24.20;99.90
41838;DHT22;27511;52.042;5.178;2022-09-06T08:51:47;24.10;99.90
41838;DHT22;27511;52.042;5.178;2022-09-06T08:59:58;24.30;99.90
41838;DHT22;27511;52.042;5.178;2022-09-06T09:02:25;24.40;99.90
41838;DHT22;27511;52.042;5.178;2022-09-06T09:04:54;24.50;99.90
41838;DHT22;27511;52.042;5.178;2022-09-06T09:07:42;24.60;99.90
41838;DHT22;27511;52.042;5.178;2022-09-06T09:10:23;24.60;99.90
41838;DHT22;27511;52.042;5.178;2022-09-06T09:12:51;24.70;99.90
41838;DHT22;27511;52.042;5.178;2022-09-06T09:15:18;24.90;99.90
41838;DHT22;27511;52.042;5.178;2022-09-06T09:17:46;24.80;99.90
41838;DHT22;27511;52.042;5.178;2022-09-06T09:20:13;25.00;99.90
41838;DHT22;27511;52.042;5.178;2022-09-06T09:22:39;25.10;99.90
41838;DHT22;27511;52.042;5.178;2022-09-06T09:25:07;25.10;99.90
41838;DHT22;27511;52.042;5.178;2022-09-06T09:27:34;25.10;99.90
41838;DHT22;27511;52.042;5.178;2022-09-06T09:30:05;25.30;99.90
41838;DHT22;27511;52.042;5.178;2022-09-06T09:32:42;25.30;99.90
41838;DHT22;27511;52.042;5.178;2022-09-06T09:38:07;25.30;99.90
41838;DHT22;27511;52.042;5.178;2022-09-06T09:40:35;25.40;99.90
41838;DHT22;27511;52.042;5.178;2022-09-06T09:43:17;25.50;99.90
41838;DHT22;27511;52.042;5.178;2022-09-06T09:45:44;25.50;99.90
41838;DHT22;27511;52.042;5.178;2022-09-06T09:48:25;25.60;99.90
41838;DHT22;27511;52.042;5.178;2022-09-06T09:50:54;25.60;99.90
41838;DHT22;27511;52.042;5.178;2022-09-06T09:53:21;25.50;99.90
41838;DHT22;27511;52.042;5.178;2022-09-06T09:55:53;25.50;99.90
41838;DHT22;27511;52.042;5.178;2022-09-06T09:58:33;25.70;99.90
41838;DHT22;27511;52.042;5.178;2022-09-06T10:01:31;25.80;99.90
41838;DHT22;27511;52.042;5.178;2022-09-06T10:04:06;25.90;99.90
41838;DHT22;27511;52.042;5.178;2022-09-06T10:06:33;26.00;99.90
41838;DHT22;27511;52.042;5.178;2022-09-06T10:09:11;26.00;99.90
41838;DHT22;27511;52.042;5.178;2022-09-06T10:12:01;26.20;99.90
41838;DHT22;27511;52.042;5.178;2022-09-06T10:14:40;26.10;99.90
41838;DHT22;27511;52.042;5.178;2022-09-06T10:17:06;26.20;99.90
41838;DHT22;27511;52.042;5.178;2022-09-06T10:19:40;26.10;99.90
41838;DHT22;27511;52.042;5.178;2022-09-06T10:30:23;26.40;99.90
41838;DHT22;27511;52.042;5.178;2022-09-06T10:33:10;26.40;99.90
41838;DHT22;27511;52.042;5.178;2022-09-06T10:35:39;26.60;99.90
41838;DHT22;27511;52.042;5.178;2022-09-06T10:38:31;26.70;99.90
41838;DHT22;27511;52.042;5.178;2022-09-06T10:41:15;26.60;99.90
41838;DHT22;27511;52.042;5.178;2022-09-06T10:44:07;26.50;99.90
41838;DHT22;27511;52.042;5.178;2022-09-06T10:46:37;26.30;99.90
41838;DHT22;27511;52.042;5.178;2022-09-06T10:49:10;26.40;99.90
41838;DHT22;27511;52.042;5.178;2022-09-06T10:51:42;26.40;99.90
41838;DHT22;27511;52.042;5.178;2022-09-06T10:54:16;26.60;99.90
41838;DHT22;27511;52.042;5.178;2022-09-06T10:56:45;26.70;99.90
41838;DHT22;27511;52.042;5.178;2022-09-06T10:59:40;26.80;99.90
41838;DHT22;27511;52.042;5.178;2022-09-06T11:02:29;26.80;99.90
41838;DHT22;27511;52.042;5.178;2022-09-06T11:05:04;26.90;99.90
41838;DHT22;27511;52.042;5.178;2022-09-06T11:07:33;27.00;99.90
41838;DHT22;27511;52.042;5.178;2022-09-06T11:12:44;27.20;99.90
41838;DHT22;27511;52.042;5.178;2022-09-06T11:15:14;27.20;99.90
41838;DHT22;27511;52.042;5.178;2022-09-06T11:17:56;27.30;99.90
41838;DHT22;27511;52.042;5.178;2022-09-06T11:20:40;27.30;99.90
41838;DHT22;27511;52.042;5.178;2022-09-06T11:28:53;27.40;99.90
41838;DHT22;27511;52.042;5.178;2022-09-06T11:31:25;27.40;99.90
41838;DHT22;27511;52.042;5.178;2022-09-06T11:34:24;27.30;99.90
41838;DHT22;27511;52.042;5.178;2022-09-06T11:37:00;27.20;99.90
41838;DHT22;27511;52.042;5.178;2022-09-06T11:39:36;27.40;99.90
41838;DHT22;27511;52.042;5.178;2022-09-06T11:42:37;27.60;99.90
41838;DHT22;27511;52.042;5.178;2022-09-06T11:47:41;27.60;99.90
41838;DHT22;27511;52.042;5.178;2022-09-06T11:55:22;27.70;99.90
41838;DHT22;27511;52.042;5.178;2022-09-06T11:57:53;27.90;99.90
41838;DHT22;27511;52.042;5.178;2022-09-06T12:00:22;27.90;99.90
41838;DHT22;27511;52.042;5.178;2022-09-06T12:02:49;27.90;99.90
41838;DHT22;27511;52.042;5.178;2022-09-06T12:05:24;28.10;99.90
41838;DHT22;27511;52.042;5.178;2022-09-06T12:16:10;28.00;99.90
41838;DHT22;27511;52.042;5.178;2022-09-06T12:21:35;28.30;99.90
41838;DHT22;27511;52.042;5.178;2022-09-06T12:24:01;28.40;99.90
41838;DHT22;27511;52.042;5.178;2022-09-06T12:26:50;28.60;99.90
41838;DHT22;27511;52.042;5.178;2022-09-06T12:29:24;28.60;99.90
41838;DHT22;27511;52.042;5.178;2022-09-06T12:31:58;28.70;99.90
41838;DHT22;27511;52.042;5.178;2022-09-06T12:34:28;28.80;99.90
41838;DHT22;27511;52.042;5.178;2022-09-06T12:37:03;28.80;99.90
41838;DHT22;27511;52.042;5.178;2022-09-06T12:39:29;28.80;99.90
41838;DHT22;27511;52.042;5.178;2022-09-06T12:41:59;28.90;99.90
41838;DHT22;27511;52.042;5.178;2022-09-06T12:44:51;28.90;99.90
41838;DHT22;27511;52.042;5.178;2022-09-06T12:47:33;29.10;99.90
41838;DHT22;27511;52.042;5.178;2022-09-06T12:50:21;29.20;99.90
41838;DHT22;27511;52.042;5.178;2022-09-06T12:52:57;29.30;99.90
41838;DHT22;27511;52.042;5.178;2022-09-06T12:55:33;29.50;99.90
41838;DHT22;27511;52.042;5.178;2022-09-06T12:58:04;29.70;99.90
41838;DHT22;27511;52.042;5.178;2022-09-06T13:00:38;29.80;99.90
41838;DHT22;27511;52.042;5.178;2022-09-06T13:05:44;30.40;99.90
41838;DHT22;27511;52.042;5.178;2022-09-06T13:08:22;30.70;99.90
41838;DHT22;27511;52.042;5.178;2022-09-06T13:10:50;31.20;99.90
41838;DHT22;27511;52.042;5.178;2022-09-06T13:13:20;31.60;99.90
41838;DHT22;27511;52.042;5.178;2022-09-06T13:15:46;32.30;99.90
41838;DHT22;27511;52.042;5.178;2022-09-06T13:23:47;33.00;99.90
41838;DHT22;27511;52.042;5.178;2022-09-06T13:26:14;33.80;99.90
41838;DHT22;27511;52.042;5.178;2022-09-06T13:28:55;34.60;99.90
41838;DHT22;27511;52.042;5.178;2022-09-06T13:31:21;35.50;99.90
41838;DHT22;27511;52.042;5.178;2022-09-06T13:33:57;35.70;99.90
41838;DHT22;27511;52.042;5.178;2022-09-06T13:36:26;35.60;99.90
41838;DHT22;27511;52.042;5.178;2022-09-06T13:38:52;36.00;99.90
41838;DHT22;27511;52.042;5.178;2022-09-06T13:46:38;36.60;99.90
41838;DHT22;27511;52.042;5.178;2022-09-06T13:49:04;37.00;99.90
41838;DHT22;27511;52.042;5.178;2022-09-06T13:51:30;36.70;99.90
41838;DHT22;27511;52.042;5.178;2022-09-06T13:54:07;36.90;99.90
41838;DHT22;27511;52.042;5.178;2022-09-06T13:56:33;37.20;99.90
41838;DHT22;27511;52.042;5.178;2022-09-06T13:58:59;37.50;99.90
41838;DHT22;27511;52.042;5.178;2022-09-06T14:01:25;37.20;99.90
41838;DHT22;27511;52.042;5.178;2022-09-06T14:03:51;36.50;99.90
41838;DHT22;27511;52.042;5.178;2022-09-06T14:06:17;36.60;99.90
41838;DHT22;27511;52.042;5.178;2022-09-06T14:08:42;36.50;99.90
41838;DHT22;27511;52.042;5.178;2022-09-06T14:11:08;36.00;99.90
41838;DHT22;27511;52.042;5.178;2022-09-06T14:13:34;35.70;99.90
41838;DHT22;27511;52.042;5.178;2022-09-06T14:15:59;35.30;99.90
41838;DHT22;27511;52.042;5.178;2022-09-06T14:18:25;34.80;99.90
41838;DHT22;27511;52.042;5.178;2022-09-06T14:20:52;34.20;99.90
41838;DHT22;27511;52.042;5.178;2022-09-06T14:23:18;33.60;99.90
41838;DHT22;27511;52.042;5.178;2022-09-06T14:25:44;33.10;99.90
41838;DHT22;27511;52.042;5.178;2022-09-06T14:28:10;32.90;99.90
41838;DHT22;27511;52.042;5.178;2022-09-06T14:30:35;32.70;99.90
41838;DHT22;27511;52.042;5.178;2022-09-06T14:33:03;32.60;99.90
41838;DHT22;27511;52.042;5.178;2022-09-06T14:35:30;32.30;99.90
41838;DHT22;27511;52.042;5.178;2022-09-06T14:37:56;32.10;99.90
41838;DHT22;27511;52.042;5.178;2022-09-06T14:40:21;31.70;99.90
41838;DHT22;27511;52.042;5.178;2022-09-06T14:42:47;31.50;99.90
41838;DHT22;27511;52.042;5.178;2022-09-06T14:45:13;31.40;99.90
41838;DHT22;27511;52.042;5.178;2022-09-06T14:47:38;31.20;99.90
41838;DHT22;27511;52.042;5.178;2022-09-06T14:50:05;31.30;99.90
41838;DHT22;27511;52.042;5.178;2022-09-06T14:52:30;31.40;99.90
41838;DHT22;27511;52.042;5.178;2022-09-06T14:54:56;31.30;99.90
41838;DHT22;27511;52.042;5.178;2022-09-06T14:57:21;31.30;99.90
41838;DHT22;27511;52.042;5.178;2022-09-06T14:59:47;31.40;99.90
41838;DHT22;27511;52.042;5.178;2022-09-06T15:02:13;31.40;99.90
41838;DHT22;27511;52.042;5.178;2022-09-06T15:04:39;31.50;99.90
41838;DHT22;27511;52.042;5.178;2022-09-06T15:07:04;31.60;99.90
41838;DHT22;27511;52.042;5.178;2022-09-06T15:09:32;31.60;99.90
41838;DHT22;27511;52.042;5.178;2022-09-06T15:11:58;31.70;99.90
41838;DHT22;27511;52.042;5.178;2022-09-06T15:14:27;31.80;99.90
41838;DHT22;27511;52.042;5.178;2022-09-06T15:16:57;31.90;99.90
41838;DHT22;27511;52.042;5.178;2022-09-06T15:19:25;31.90;99.90
41838;DHT22;27511;52.042;5.178;2022-09-06T15:21:52;31.90;99.90
41838;DHT22;27511;52.042;5.178;2022-09-06T15:24:18;31.60;99.90
41838;DHT22;27511;52.042;5.178;2022-09-06T15:26:44;31.50;99.90
41838;DHT22;27511;52.042;5.178;2022-09-06T15:29:10;31.70;99.90
41838;DHT22;27511;52.042;5.178;2022-09-06T15:31:36;31.90;99.90
41838;DHT22;27511;52.042;5.178;2022-09-06T15:34:05;32.50;99.90
41838;DHT22;27511;52.042;5.178;2022-09-06T15:36:32;33.10;99.90
41838;DHT22;27511;52.042;5.178;2022-09-06T15:38:59;33.40;99.90
41838;DHT22;27511;52.042;5.178;2022-09-06T15:41:29;33.50;99.90
41838;DHT22;27511;52.042;5.178;2022-09-06T15:43:58;33.50;99.90
41838;DHT22;27511;52.042;5.178;2022-09-06T15:48:59;33.20;99.90
41838;DHT22;27511;52.042;5.178;2022-09-06T15:51:25;33.00;99.90
41838;DHT22;27511;52.042;5.178;2022-09-06T15:53:51;33.00;99.90
41838;DHT22;27511;52.042;5.178;2022-09-06T15:56:17;33.10;99.90
41838;DHT22;27511;52.042;5.178;2022-09-06T15:58:43;33.10;99.90
41838;DHT22;27511;52.042;5.178;2022-09-06T16:01:14;33.10;99.90
41838;DHT22;27511;52.042;5.178;2022-09-06T16:03:42;32.80;99.90
41838;DHT22;27511;52.042;5.178;2022-09-06T16:06:11;32.60;99.90
41838;DHT22;27511;52.042;5.178;2022-09-06T16:08:37;32.20;99.90
41838;DHT22;27511;52.042;5.178;2022-09-06T16:11:07;32.00;99.90
41838;DHT22;27511;52.042;5.178;2022-09-06T16:13:34;31.80;99.90
41838;DHT22;27511;52.042;5.178;2022-09-06T16:16:02;31.50;99.90
41838;DHT22;27511;52.042;5.178;2022-09-06T16:18:30;31.20;99.90
41838;DHT22;27511;52.042;5.178;2022-09-06T16:20:56;31.10;99.90
41838;DHT22;27511;52.042;5.178;2022-09-06T16:23:22;31.00;99.90
41838;DHT22;27511;52.042;5.178;2022-09-06T16:25:51;30.90;99.90
41838;DHT22;27511;52.042;5.178;2022-09-06T16:28:17;30.70;99.90
41838;DHT22;27511;52.042;5.178;2022-09-06T16:30:43;30.60;99.90
41838;DHT22;27511;52.042;5.178;2022-09-06T16:33:10;30.50;99.90
41838;DHT22;27511;52.042;5.178;2022-09-06T16:35:39;30.30;99.90
41838;DHT22;27511;52.042;5.178;2022-09-06T16:38:06;30.20;99.90
41838;DHT22;27511;52.042;5.178;2022-09-06T16:40:33;30.20;99.90
41838;DHT22;27511;52.042;5.178;2022-09-06T16:42:59;30.10;99.90
41838;DHT22;27511;52.042;5.178;2022-09-06T16:45:25;30.00;99.90
41838;DHT22;27511;52.042;5.178;2022-09-06T16:47:51;29.90;99.90
41838;DHT22;27511;52.042;5.178;2022-09-06T16:50:16;29.80;99.90
41838;DHT22;27511;52.042;5.178;2022-09-06T16:52:42;29.80;99.90
41838;DHT22;27511;52.042;5.178;2022-09-06T16:55:08;29.80;99.90
41838;DHT22;27511;52.042;5.178;2022-09-06T16:57:33;29.60;99.90
41838;DHT22;27511;52.042;5.178;2022-09-06T16:59:59;29.50;99.90
41838;DHT22;27511;52.042;5.178;2022-09-06T17:02:25;29.40;99.90
41838;DHT22;27511;52.042;5.178;2022-09-06T17:04:50;29.30;99.90
41838;DHT22;27511;52.042;5.178;2022-09-06T17:07:18;29.30;99.90
41838;DHT22;27511;52.042;5.178;2022-09-06T17:09:44;29.20;99.90
41838;DHT22;27511;52.042;5.178;2022-09-06T17:12:10;29.20;99.90
41838;DHT22;27511;52.042;5.178;2022-09-06T17:14:35;29.10;99.90
41838;DHT22;27511;52.042;5.178;2022-09-06T17:17:01;29.10;99.90
41838;DHT22;27511;52.042;5.178;2022-09-06T17:19:36;29.00;99.90
41838;DHT22;27511;52.042;5.178;2022-09-06T17:22:04;28.90;99.90